sensor_id;sensor_type;location;lat;lon;timestamp;pressure;altitude;pressure_sealevel;temperature;humidity
7824;BME280;3957;48.61947800;9.05303100;2024-02-04T00:00:29;97176.91;;;5.20;100.00
7824;BME280;3957;48.61947800;9.05303100;2024-02-04T00:01:30;97171.59;;;5.30;100.00
7824;BME280;3957;48.61947800;9.05303100;2024-02-04T00:02:32;97169.09;;;5.19;100.00
7824;BME280;3957;48.61947800;9.05303100;2024-02-04T00:03:33;97176.91;;;5.20;100.00
7824;BME280;3957;48.61947800;9.05303100;2024-02-04T00:04:35;97173.84;;;5.25;100.00
7824;BME280;3957;48.61947800;9.05303100;2024-02-04T00:05:37;97164.91;;;5.16;100.00
7824;BME280;3957;48.61947800;9.05303100;2024-02-04T00:06:39;97168.28;;;5.18;100.00
7824;BME280;3957;48.61947800;9.05303100;2024-02-04T00:07:40;97158.94;;;5.14;100.00
7824;BME280;3957;48.61947800;9.05303100;2024-02-04T00:08:42;97157.09;;;5.15;100.00
7824;BME280;3957;48.61947800;9.05303100;2024-02-04T00:09:43;97157.97;;;5.15;100.00
7824;BME280;3957;48.61947800;9.05303100;2024-02-04T00:10:45;97151.94;;;5.13;100.00
7824;BME280;3957;48.61947800;9.05303100;2024-02-04T00:11:46;97159.75;;;5.15;100.00
7824;BME280;3957;48.61947800;9.05303100;2024-02-04T00:12:48;97152.09;;;5.11;100.00
7824;BME280;3957;48.61947800;9.05303100;2024-02-04T00:13:50;97155.00;;;5.18;100.00
7824;BME280;3957;48.61947800;9.05303100;2024-02-04T00:14:51;97161.00;;;5.20;100.00
7824;BME280;3957;48.61947800;9.05303100;2024-02-04T00:15:53;97153.03;;;5.20;100.00
7824;BME280;3957;48.61947800;9.05303100;2024-02-04T00:16:55;97155.97;;;5.17;100.00
7824;BME280;3957;48.61947800;9.05303100;2024-02-04T00:17:57;97152.66;;;5.15;100.00
7824;BME280;3957;48.61947800;9.05303100;2024-02-04T00:18:59;97156.13;;;5.16;100.00
7824;BME280;3957;48.61947800;9.05303100;2024-02-04T00:20:01;97155.66;;;5.30;100.00
7824;BME280;3957;48.61947800;9.05303100;2024-02-04T00:21:04;97157.50;;;5.30;100.00
7824;BME280;3957;48.61947800;9.05303100;2024-02-04T00:22:06;97150.81;;;5.16;100.00
7824;BME280;3957;48.61947800;9.05303100;2024-02-04T00:23:07;97142.16;;;5.23;100.00
7824;BME280;3957;48.61947800;9.05303100;2024-02-04T00:24:09;97137.94;;;5.31;100.00
7824;BME280;3957;48.61947800;9.05303100;2024-02-04T00:25:10;97130.53;;;5.24;100.00
7824;BME280;3957;48.61947800;9.05303100;2024-02-04T00:26:13;97126.22;;;5.23;100.00
7824;BME280;3957;48.61947800;9.05303100;2024-02-04T00:27:15;97116.16;;;5.27;100.00
7824;BME280;3957;48.61947800;9.05303100;2024-02-04T00:28:16;97114.38;;;5.08;100.00
7824;BME280;3957;48.61947800;9.05303100;2024-02-04T00:29:20;97110.91;;;5.07;100.00
7824;BME280;3957;48.61947800;9.05303100;2024-02-04T00:30:22;97108.41;;;5.06;100.00
7824;BME280;3957;48.61947800;9.05303100;2024-02-04T00:31:24;97117.03;;;5.08;100.00
7824;BME280;3957;48.61947800;9.05303100;2024-02-04T00:32:26;97110.19;;;5.05;100.00
7824;BME280;3957;48.61947800;9.05303100;2024-02-04T00:33:28;97107.69;;;5.04;100.00
7824;BME280;3957;48.61947800;9.05303100;2024-02-04T00:34:30;97117.19;;;5.06;100.00
7824;BME280;3957;48.61947800;9.05303100;2024-02-04T00:35:32;97105.44;;;5.09;100.00
7824;BME280;3957;48.61947800;9.05303100;2024-02-04T00:36:33;97100.16;;;5.09;100.00
7824;BME280;3957;48.61947800;9.05303100;2024-02-04T00:37:35;97088.41;;;5.11;100.00
7824;BME280;3957;48.61947800;9.05303100;2024-02-04T00:38:36;97091.63;;;5.05;100.00
7824;BME280;3957;48.61947800;9.05303100;2024-02-04T00:39:38;97092.78;;;5.03;100.00
7824;BME280;3957;48.61947800;9.05303100;2024-02-04T00:40:39;97091.63;;;5.05;100.00
7824;BME280;3957;48.61947800;9.05303100;2024-02-04T00:41:41;97089.31;;;4.92;100.00
7824;BME280;3957;48.61947800;9.05303100;2024-02-04T00:42:42;97096.69;;;4.99;100.00
7824;BME280;3957;48.61947800;9.05303100;2024-02-04T00:43:44;97096.94;;;5.05;100.00
7824;BME280;3957;48.61947800;9.05303100;2024-02-04T00:44:45;97097.66;;;4.98;100.00
7824;BME280;3957;48.61947800;9.05303100;2024-02-04T00:45:47;97097.22;;;5.02;100.00
7824;BME280;3957;48.61947800;9.05303100;2024-02-04T00:46:48;97101.00;;;5.00;100.00
7824;BME280;3957;48.61947800;9.05303100;2024-02-04T00:47:50;97098.94;;;4.93;100.00
7824;BME280;3957;48.61947800;9.05303100;2024-02-04T00:48:52;97096.97;;;4.96;100.00
7824;BME280;3957;48.61947800;9.05303100;2024-02-04T00:49:54;97098.47;;;5.08;100.00
7824;BME280;3957;48.61947800;9.05303100;2024-02-04T00:50:55;97083.03;;;4.93;100.00
7824;BME280;3957;48.61947800;9.05303100;2024-02-04T00:51:57;97074.81;;;4.87;100.00
7824;BME280;3957;48.61947800;9.05303100;2024-02-04T00:52:58;97072.13;;;4.97;100.00
7824;BME280;3957;48.61947800;9.05303100;2024-02-04T00:54:00;97074.25;;;4.83;100.00
7824;BME280;3957;48.61947800;9.05303100;2024-02-04T00:55:02;97075.81;;;4.76;100.00
7824;BME280;3957;48.61947800;9.05303100;2024-02-04T00:56:04;97078.16;;;4.79;100.00
7824;BME280;3957;48.61947800;9.05303100;2024-02-04T00:57:06;97082.38;;;4.72;100.00
7824;BME280;3957;48.61947800;9.05303100;2024-02-04T00:58:07;97073.59;;;4.71;100.00
7824;BME280;3957;48.61947800;9.05303100;2024-02-04T00:59:09;97082.34;;;4.82;100.00
7824;BME280;3957;48.61947800;9.05303100;2024-02-04T01:00:11;97076.91;;;4.73;100.00
7824;BME280;3957;48.61947800;9.05303100;2024-02-04T01:01:14;97081.94;;;4.67;100.00
7824;BME280;3957;48.61947800;9.05303100;2024-02-04T01:02:16;97085.16;;;4.70;100.00
7824;BME280;3957;48.61947800;9.05303100;2024-02-04T01:03:17;97083.50;;;4.59;100.00
7824;BME280;3957;48.61947800;9.05303100;2024-02-04T01:04:19;97094.78;;;4.71;100.00
7824;BME280;3957;48.61947800;9.05303100;2024-02-04T01:05:21;97091.44;;;4.69;100.00
7824;BME280;3957;48.61947800;9.05303100;2024-02-04T01:06:22;97098.72;;;4.67;100.00
7824;BME280;3957;48.61947800;9.05303100;2024-02-04T01:07:24;97089.38;;;4.63;100.00
7824;BME280;3957;48.61947800;9.05303100;2024-02-04T01:08:25;97100.66;;;4.65;100.00
7824;BME280;3957;48.61947800;9.05303100;2024-02-04T01:09:28;97088.63;;;4.71;100.00
7824;BME280;3957;48.61947800;9.05303100;2024-02-04T01:10:30;97090.16;;;4.73;100.00
7824;BME280;3957;48.61947800;9.05303100;2024-02-04T01:11:31;97088.63;;;4.71;100.00
7824;BME280;3957;48.61947800;9.05303100;2024-02-04T01:12:33;97083.63;;;4.68;100.00
7824;BME280;3957;48.61947800;9.05303100;2024-02-04T01:13:34;97097.84;;;4.67;100.00
7824;BME280;3957;48.61947800;9.05303100;2024-02-04T01:14:36;97095.22;;;4.76;100.00
7824;BME280;3957;48.61947800;9.05303100;2024-02-04T01:15:37;97097.00;;;4.76;100.00
7824;BME280;3957;48.61947800;9.05303100;2024-02-04T01:16:39;97094.22;;;4.77;100.00
7824;BME280;3957;48.61947800;9.05303100;2024-02-04T01:17:41;97093.69;;;4.74;100.00
7824;BME280;3957;48.61947800;9.05303100;2024-02-04T01:18:42;97088.63;;;4.71;100.00
7824;BME280;3957;48.61947800;9.05303100;2024-02-04T01:19:44;97088.75;;;4.79;100.00
7824;BME280;3957;48.61947800;9.05303100;2024-02-04T01:20:46;97089.91;;;4.76;100.00
7824;BME280;3957;48.61947800;9.05303100;2024-02-04T01:21:47;97093.81;;;4.82;100.00
7824;BME280;3957;48.61947800;9.05303100;2024-02-04T01:22:49;97079.16;;;4.78;100.00
7824;BME280;3957;48.61947800;9.05303100;2024-02-04T01:23:51;97078.56;;;4.84;100.00
7824;BME280;3957;48.61947800;9.05303100;2024-02-04T01:24:53;97079.69;;;4.82;100.00
7824;BME280;3957;48.61947800;9.05303100;2024-02-04T01:25:55;97072.44;;;4.84;100.00
7824;BME280;3957;48.61947800;9.05303100;2024-02-04T01:26:56;97064.91;;;4.79;100.00
7824;BME280;3957;48.61947800;9.05303100;2024-02-04T01:27:58;97065.19;;;4.76;100.00
7824;BME280;3957;48.61947800;9.05303100;2024-02-04T01:28:59;97062.97;;;4.71;100.00
7824;BME280;3957;48.61947800;9.05303100;2024-02-04T01:30:03;97058.50;;;4.72;100.00
7824;BME280;3957;48.61947800;9.05303100;2024-02-04T01:31:05;97058.50;;;4.72;100.00
7824;BME280;3957;48.61947800;9.05303100;2024-02-04T01:32:06;97056.81;;;4.71;100.00
7824;BME280;3957;48.61947800;9.05303100;2024-02-04T01:33:08;97063.50;;;4.75;100.00
7824;BME280;3957;48.61947800;9.05303100;2024-02-04T01:34:10;97058.09;;;4.67;100.00
7824;BME280;3957;48.61947800;9.05303100;2024-02-04T01:35:13;97048.47;;;4.66;100.00
7824;BME280;3957;48.61947800;9.05303100;2024-02-04T01:36:16;97044.56;;;4.70;100.00
7824;BME280;3957;48.61947800;9.05303100;2024-02-04T01:37:18;97050.13;;;4.67;100.00
7824;BME280;3957;48.61947800;9.05303100;2024-02-04T01:38:19;97052.78;;;4.67;100.00
7824;BME280;3957;48.61947800;9.05303100;2024-02-04T01:39:21;97049.88;;;4.60;100.00
7824;BME280;3957;48.61947800;9.05303100;2024-02-04T01:40:22;97048.34;;;4.57;100.00
7824;BME280;3957;48.61947800;9.05303100;2024-02-04T01:41:24;97055.16;;;4.70;100.00
7824;BME280;3957;48.61947800;9.05303100;2024-02-04T01:42:27;97049.19;;;4.58;100.00
7824;BME280;3957;48.61947800;9.05303100;2024-02-04T01:43:29;97054.34;;;4.59;100.00
7824;BME280;3957;48.61947800;9.05303100;2024-02-04T01:44:31;97052.94;;;4.65;100.00
7824;BME280;3957;48.61947800;9.05303100;2024-02-04T01:45:33;97045.84;;;4.66;100.00
7824;BME280;3957;48.61947800;9.05303100;2024-02-04T01:46:34;97041.38;;;4.56;100.00
7824;BME280;3957;48.61947800;9.05303100;2024-02-04T01:47:36;97044.00;;;4.66;100.00
7824;BME280;3957;48.61947800;9.05303100;2024-02-04T01:48:38;97038.44;;;4.59;100.00
7824;BME280;3957;48.61947800;9.05303100;2024-02-04T01:49:41;97044.84;;;4.57;100.00
7824;BME280;3957;48.61947800;9.05303100;2024-02-04T01:50:44;97040.44;;;4.48;100.00
7824;BME280;3957;48.61947800;9.05303100;2024-02-04T01:51:46;97052.81;;;4.47;100.00
7824;BME280;3957;48.61947800;9.05303100;2024-02-04T01:52:48;97063.56;;;4.46;100.00
7824;BME280;3957;48.61947800;9.05303100;2024-02-04T01:53:51;97062.63;;;4.37;100.00
7824;BME280;3957;48.61947800;9.05303100;2024-02-04T01:54:52;97075.16;;;4.35;100.00
7824;BME280;3957;48.61947800;9.05303100;2024-02-04T01:55:55;97069.97;;;4.43;100.00
7824;BME280;3957;48.61947800;9.05303100;2024-02-04T01:56:58;97071.66;;;4.34;100.00
7824;BME280;3957;48.61947800;9.05303100;2024-02-04T01:58:02;97074.19;;;4.36;100.00
7824;BME280;3957;48.61947800;9.05303100;2024-02-04T01:59:04;97074.16;;;4.46;100.00
7824;BME280;3957;48.61947800;9.05303100;2024-02-04T02:00:08;97060.09;;;4.35;100.00
7824;BME280;3957;48.61947800;9.05303100;2024-02-04T02:01:12;97064.84;;;4.32;100.00
7824;BME280;3957;48.61947800;9.05303100;2024-02-04T02:02:14;97067.34;;;4.33;100.00
7824;BME280;3957;48.61947800;9.05303100;2024-02-04T02:03:16;97069.84;;;4.35;100.00
7824;BME280;3957;48.61947800;9.05303100;2024-02-04T02:04:18;97064.16;;;4.39;100.00
7824;BME280;3957;48.61947800;9.05303100;2024-02-04T02:05:20;97068.19;;;4.43;100.00
7824;BME280;3957;48.61947800;9.05303100;2024-02-04T02:06:22;97078.50;;;4.47;100.00
7824;BME280;3957;48.61947800;9.05303100;2024-02-04T02:07:25;97075.56;;;4.40;100.00
7824;BME280;3957;48.61947800;9.05303100;2024-02-04T02:08:28;97072.38;;;4.46;100.00
7824;BME280;3957;48.61947800;9.05303100;2024-02-04T02:09:30;97073.75;;;4.40;100.00
7824;BME280;3957;48.61947800;9.05303100;2024-02-04T02:10:32;97074.31;;;4.44;100.00
7824;BME280;3957;48.61947800;9.05303100;2024-02-04T02:11:40;97074.03;;;4.47;100.00
7824;BME280;3957;48.61947800;9.05303100;2024-02-04T02:12:56;97073.88;;;4.49;100.00
7824;BME280;3957;48.61947800;9.05303100;2024-02-04T02:14:03;97080.56;;;4.53;100.00
7824;BME280;3957;48.61947800;9.05303100;2024-02-04T02:15:15;97084.22;;;4.52;100.00
7824;BME280;3957;48.61947800;9.05303100;2024-02-04T02:16:21;97081.69;;;4.40;100.00
7824;BME280;3957;48.61947800;9.05303100;2024-02-04T02:17:31;97071.81;;;4.42;100.00
7824;BME280;3957;48.61947800;9.05303100;2024-02-04T02:18:44;97069.72;;;4.46;100.00
7824;BME280;3957;48.61947800;9.05303100;2024-02-04T02:19:52;97063.03;;;4.42;100.00
7824;BME280;3957;48.61947800;9.05303100;2024-02-04T02:22:29;97069.97;;;4.53;100.00
7824;BME280;3957;48.61947800;9.05303100;2024-02-04T02:23:47;97059.38;;;4.53;100.00
7824;BME280;3957;48.61947800;9.05303100;2024-02-04T02:24:51;97056.72;;;4.53;100.00
7824;BME280;3957;48.61947800;9.05303100;2024-02-04T02:25:53;97051.84;;;4.58;100.00
7824;BME280;3957;48.61947800;9.05303100;2024-02-04T02:26:55;97052.69;;;4.58;100.00
7824;BME280;3957;48.61947800;9.05303100;2024-02-04T02:27:58;97052.69;;;4.58;100.00
7824;BME280;3957;48.61947800;9.05303100;2024-02-04T02:29:00;97058.38;;;4.64;100.00
7824;BME280;3957;48.61947800;9.05303100;2024-02-04T02:30:01;97057.28;;;4.56;100.00
7824;BME280;3957;48.61947800;9.05303100;2024-02-04T02:31:04;97054.47;;;4.58;100.00
7824;BME280;3957;48.61947800;9.05303100;2024-02-04T02:32:08;97055.19;;;4.60;100.00
7824;BME280;3957;48.61947800;9.05303100;2024-02-04T02:33:10;97053.78;;;4.66;100.00
7824;BME280;3957;48.61947800;9.05303100;2024-02-04T02:34:12;97048.22;;;4.59;100.00
7824;BME280;3957;48.61947800;9.05303100;2024-02-04T02:35:30;97047.38;;;4.58;100.00
7824;BME280;3957;48.61947800;9.05303100;2024-02-04T02:36:40;97049.75;;;4.62;100.00
7824;BME280;3957;48.61947800;9.05303100;2024-02-04T02:38:53;97054.19;;;4.61;100.00
7824;BME280;3957;48.61947800;9.05303100;2024-02-04T02:40:07;97051.00;;;4.57;100.00
7824;BME280;3957;48.61947800;9.05303100;2024-02-04T02:41:10;97044.31;;;4.63;100.00
7824;BME280;3957;48.61947800;9.05303100;2024-02-04T02:42:14;97060.22;;;4.63;100.00
7824;BME280;3957;48.61947800;9.05303100;2024-02-04T02:43:18;97056.84;;;4.61;100.00
7824;BME280;3957;48.61947800;9.05303100;2024-02-04T02:44:21;97061.19;;;4.62;100.00
7824;BME280;3957;48.61947800;9.05303100;2024-02-04T02:45:25;97065.94;;;4.58;100.00
7824;BME280;3957;48.61947800;9.05303100;2024-02-04T02:46:28;97075.69;;;4.58;100.00
7824;BME280;3957;48.61947800;9.05303100;2024-02-04T02:47:30;97072.63;;;4.53;100.00
7824;BME280;3957;48.61947800;9.05303100;2024-02-04T02:48:33;97073.91;;;4.58;100.00
7824;BME280;3957;48.61947800;9.05303100;2024-02-04T02:49:34;97073.16;;;4.66;100.00
7824;BME280;3957;48.61947800;9.05303100;2024-02-04T02:50:36;97074.13;;;4.65;100.00
7824;BME280;3957;48.61947800;9.05303100;2024-02-04T02:51:38;97078.31;;;4.68;100.00
7824;BME280;3957;48.61947800;9.05303100;2024-02-04T02:52:40;97073.47;;;4.63;100.00
7824;BME280;3957;48.61947800;9.05303100;2024-02-04T02:53:42;97082.94;;;4.66;100.00
7824;BME280;3957;48.61947800;9.05303100;2024-02-04T02:54:43;97069.13;;;4.62;100.00
7824;BME280;3957;48.61947800;9.05303100;2024-02-04T02:55:45;97068.84;;;4.65;100.00
7824;BME280;3957;48.61947800;9.05303100;2024-02-04T02:56:48;97070.09;;;4.61;100.00
7824;BME280;3957;48.61947800;9.05303100;2024-02-04T02:57:49;97068.16;;;4.63;100.00
7824;BME280;3957;48.61947800;9.05303100;2024-02-04T02:58:51;97077.22;;;4.70;100.00
7824;BME280;3957;48.61947800;9.05303100;2024-02-04T02:59:52;97077.47;;;4.77;100.00
7824;BME280;3957;48.61947800;9.05303100;2024-02-04T03:00:54;97077.06;;;4.72;100.00
7824;BME280;3957;48.61947800;9.05303100;2024-02-04T03:01:56;97072.47;;;4.74;100.00
7824;BME280;3957;48.61947800;9.05303100;2024-02-04T03:02:58;97074.13;;;4.75;100.00
7824;BME280;3957;48.61947800;9.05303100;2024-02-04T03:04:00;97073.44;;;4.73;100.00
7824;BME280;3957;48.61947800;9.05303100;2024-02-04T03:05:01;97073.16;;;4.66;100.00
7824;BME280;3957;48.61947800;9.05303100;2024-02-04T03:06:03;97068.31;;;4.62;100.00
7824;BME280;3957;48.61947800;9.05303100;2024-02-04T03:07:05;97068.97;;;4.64;100.00
7824;BME280;3957;48.61947800;9.05303100;2024-02-04T03:08:09;97060.88;;;4.65;100.00
7824;BME280;3957;48.61947800;9.05303100;2024-02-04T03:09:10;97068.97;;;4.64;100.00
7824;BME280;3957;48.61947800;9.05303100;2024-02-04T03:10:12;97070.22;;;4.69;100.00
7824;BME280;3957;48.61947800;9.05303100;2024-02-04T03:11:14;97062.00;;;4.63;100.00
7824;BME280;3957;48.61947800;9.05303100;2024-02-04T03:12:16;97063.69;;;4.64;100.00
7824;BME280;3957;48.61947800;9.05303100;2024-02-04T03:13:17;97066.34;;;4.64;100.00
7824;BME280;3957;48.61947800;9.05303100;2024-02-04T03:14:20;97070.06;;;4.71;100.00
7824;BME280;3957;48.61947800;9.05303100;2024-02-04T03:15:21;97060.63;;;4.68;100.00
7824;BME280;3957;48.61947800;9.05303100;2024-02-04T03:16:23;97071.63;;;4.64;100.00
7824;BME280;3957;48.61947800;9.05303100;2024-02-04T03:17:25;97069.28;;;4.60;100.00
7824;BME280;3957;48.61947800;9.05303100;2024-02-04T03:18:27;97070.53;;;4.66;100.00
7824;BME280;3957;48.61947800;9.05303100;2024-02-04T03:19:28;97075.97;;;4.65;100.00
7824;BME280;3957;48.61947800;9.05303100;2024-02-04T03:20:30;97080.69;;;4.61;100.00
7824;BME280;3957;48.61947800;9.05303100;2024-02-04T03:21:31;97069.94;;;4.63;100.00
7824;BME280;3957;48.61947800;9.05303100;2024-02-04T03:22:33;97075.41;;;4.61;100.00
7824;BME280;3957;48.61947800;9.05303100;2024-02-04T03:23:35;97070.94;;;4.62;100.00
7824;BME280;3957;48.61947800;9.05303100;2024-02-04T03:24:36;97069.13;;;4.62;100.00
7824;BME280;3957;48.61947800;9.05303100;2024-02-04T03:25:38;97067.03;;;4.66;100.00
7824;BME280;3957;48.61947800;9.05303100;2024-02-04T03:26:39;97071.34;;;4.67;100.00
7824;BME280;3957;48.61947800;9.05303100;2024-02-04T03:27:42;97066.47;;;4.62;100.00
7824;BME280;3957;48.61947800;9.05303100;2024-02-04T03:28:44;97069.13;;;4.62;100.00
7824;BME280;3957;48.61947800;9.05303100;2024-02-04T03:29:45;97066.78;;;4.59;100.00
7824;BME280;3957;48.61947800;9.05303100;2024-02-04T03:30:47;97066.91;;;4.57;100.00
7824;BME280;3957;48.61947800;9.05303100;2024-02-04T03:31:49;97069.94;;;4.63;100.00
7824;BME280;3957;48.61947800;9.05303100;2024-02-04T03:32:50;97065.38;;;4.65;100.00
7824;BME280;3957;48.61947800;9.05303100;2024-02-04T03:33:52;97062.97;;;4.71;100.00
7824;BME280;3957;48.61947800;9.05303100;2024-02-04T03:34:54;97061.31;;;4.70;100.00
7824;BME280;3957;48.61947800;9.05303100;2024-02-04T03:35:56;97065.50;;;4.73;100.00
7824;BME280;3957;48.61947800;9.05303100;2024-02-04T03:36:58;97068.00;;;4.65;100.00
7824;BME280;3957;48.61947800;9.05303100;2024-02-04T03:37:59;97070.66;;;4.65;100.00
7824;BME280;3957;48.61947800;9.05303100;2024-02-04T03:39:01;97063.66;;;4.73;100.00
7824;BME280;3957;48.61947800;9.05303100;2024-02-04T03:40:03;97059.63;;;4.69;100.00
7824;BME280;3957;48.61947800;9.05303100;2024-02-04T03:41:05;97059.91;;;4.66;100.00
7824;BME280;3957;48.61947800;9.05303100;2024-02-04T03:42:07;97059.47;;;4.71;100.00
7824;BME280;3957;48.61947800;9.05303100;2024-02-04T03:43:09;97056.81;;;4.71;100.00
7824;BME280;3957;48.61947800;9.05303100;2024-02-04T03:44:10;97055.84;;;4.72;100.00
7824;BME280;3957;48.61947800;9.05303100;2024-02-04T03:45:12;97048.75;;;4.72;100.00
7824;BME280;3957;48.61947800;9.05303100;2024-02-04T03:46:14;97043.84;;;4.68;100.00
7824;BME280;3957;48.61947800;9.05303100;2024-02-04T03:47:16;97050.13;;;4.76;100.00
7824;BME280;3957;48.61947800;9.05303100;2024-02-04T03:48:18;97049.88;;;4.70;100.00
7824;BME280;3957;48.61947800;9.05303100;2024-02-04T03:49:19;97042.19;;;4.67;100.00
7824;BME280;3957;48.61947800;9.05303100;2024-02-04T03:50:21;97050.44;;;4.64;100.00
7824;BME280;3957;48.61947800;9.05303100;2024-02-04T03:51:23;97045.41;;;4.70;100.00
7824;BME280;3957;48.61947800;9.05303100;2024-02-04T03:52:24;97044.94;;;4.75;100.00
7824;BME280;3957;48.61947800;9.05303100;2024-02-04T03:53:26;97044.44;;;4.62;100.00
7824;BME280;3957;48.61947800;9.05303100;2024-02-04T03:54:27;97033.97;;;4.70;100.00
7824;BME280;3957;48.61947800;9.05303100;2024-02-04T03:55:29;97029.59;;;4.79;100.00
7824;BME280;3957;48.61947800;9.05303100;2024-02-04T03:56:30;97032.97;;;4.71;100.00
7824;BME280;3957;48.61947800;9.05303100;2024-02-04T03:57:32;97032.00;;;4.72;100.00
7824;BME280;3957;48.61947800;9.05303100;2024-02-04T03:58:34;97038.41;;;4.69;100.00
7824;BME280;3957;48.61947800;9.05303100;2024-02-04T03:59:35;97032.44;;;4.67;100.00
7824;BME280;3957;48.61947800;9.05303100;2024-02-04T04:00:37;97031.16;;;4.71;100.00
7824;BME280;3957;48.61947800;9.05303100;2024-02-04T04:01:39;97020.03;;;4.58;100.00
7824;BME280;3957;48.61947800;9.05303100;2024-02-04T04:02:41;97027.41;;;4.64;100.00
7824;BME280;3957;48.61947800;9.05303100;2024-02-04T04:03:43;97015.97;;;4.64;100.00
7824;BME280;3957;48.61947800;9.05303100;2024-02-04T04:04:45;97020.56;;;4.71;100.00
7824;BME280;3957;48.61947800;9.05303100;2024-02-04T04:05:50;97018.72;;;4.72;100.00
7824;BME280;3957;48.61947800;9.05303100;2024-02-04T04:06:52;97015.97;;;4.64;100.00
7824;BME280;3957;48.61947800;9.05303100;2024-02-04T04:07:53;97025.56;;;4.74;100.00
7824;BME280;3957;48.61947800;9.05303100;2024-02-04T04:08:55;97022.22;;;4.63;100.00
7824;BME280;3957;48.61947800;9.05303100;2024-02-04T04:10:00;97023.09;;;4.63;100.00
7824;BME280;3957;48.61947800;9.05303100;2024-02-04T04:11:01;97021.00;;;4.57;100.00
7824;BME280;3957;48.61947800;9.05303100;2024-02-04T04:12:03;97016.81;;;4.64;100.00
7824;BME280;3957;48.61947800;9.05303100;2024-02-04T04:13:05;97026.84;;;4.70;100.00
7824;BME280;3957;48.61947800;9.05303100;2024-02-04T04:14:07;97031.59;;;4.57;100.00
7824;BME280;3957;48.61947800;9.05303100;2024-02-04T04:15:08;97033.13;;;4.59;100.00
7824;BME280;3957;48.61947800;9.05303100;2024-02-04T04:16:10;97030.63;;;4.58;100.00
7824;BME280;3957;48.61947800;9.05303100;2024-02-04T04:17:11;97029.66;;;4.59;100.00
7824;BME280;3957;48.61947800;9.05303100;2024-02-04T04:18:13;97032.16;;;4.60;100.00
7824;BME280;3957;48.61947800;9.05303100;2024-02-04T04:19:14;97042.19;;;4.57;100.00
7824;BME280;3957;48.61947800;9.05303100;2024-02-04T04:20:16;97046.53;;;4.58;100.00
7824;BME280;3957;48.61947800;9.05303100;2024-02-04T04:21:18;97051.00;;;4.57;100.00
7824;BME280;3957;48.61947800;9.05303100;2024-02-04T04:22:19;97051.00;;;4.67;100.00
7824;BME280;3957;48.61947800;9.05303100;2024-02-04T04:23:21;97058.94;;;4.67;100.00
7824;BME280;3957;48.61947800;9.05303100;2024-02-04T04:24:23;97051.00;;;4.67;100.00
7824;BME280;3957;48.61947800;9.05303100;2024-02-04T04:25:24;97054.91;;;4.63;100.00
7824;BME280;3957;48.61947800;9.05303100;2024-02-04T04:26:26;97065.38;;;4.55;100.00
7824;BME280;3957;48.61947800;9.05303100;2024-02-04T04:27:27;97058.97;;;4.57;100.00
7824;BME280;3957;48.61947800;9.05303100;2024-02-04T04:28:29;97056.03;;;4.60;100.00
7824;BME280;3957;48.61947800;9.05303100;2024-02-04T04:29:31;97051.97;;;4.56;100.00
7824;BME280;3957;48.61947800;9.05303100;2024-02-04T04:30:33;97048.50;;;4.56;100.00
7824;BME280;3957;48.61947800;9.05303100;2024-02-04T04:31:35;97049.91;;;4.50;100.00
7824;BME280;3957;48.61947800;9.05303100;2024-02-04T04:32:37;97046.00;;;4.54;100.00
7824;BME280;3957;48.61947800;9.05303100;2024-02-04T04:33:38;97044.75;;;4.58;100.00
7824;BME280;3957;48.61947800;9.05303100;2024-02-04T04:34:40;97044.72;;;4.68;100.00
7824;BME280;3957;48.61947800;9.05303100;2024-02-04T04:35:42;97043.72;;;4.59;100.00
7824;BME280;3957;48.61947800;9.05303100;2024-02-04T04:36:43;97045.16;;;4.54;100.00
7824;BME280;3957;48.61947800;9.05303100;2024-02-04T04:37:45;97041.25;;;4.48;100.00
7824;BME280;3957;48.61947800;9.05303100;2024-02-04T04:38:47;97037.34;;;4.52;100.00
7824;BME280;3957;48.61947800;9.05303100;2024-02-04T04:39:51;97033.13;;;4.59;100.00
7824;BME280;3957;48.61947800;9.05303100;2024-02-04T04:40:52;97012.38;;;4.55;100.00
7824;BME280;3957;48.61947800;9.05303100;2024-02-04T04:41:54;97016.84;;;4.54;100.00
7824;BME280;3957;48.61947800;9.05303100;2024-02-04T04:42:56;97016.84;;;4.54;100.00
7824;BME280;3957;48.61947800;9.05303100;2024-02-04T04:43:58;97013.91;;;4.57;100.00
7824;BME280;3957;48.61947800;9.05303100;2024-02-04T04:44:59;97007.47;;;4.60;100.00
7824;BME280;3957;48.61947800;9.05303100;2024-02-04T04:46:01;97014.88;;;4.56;100.00
7824;BME280;3957;48.61947800;9.05303100;2024-02-04T04:47:03;97021.88;;;4.48;100.00
7824;BME280;3957;48.61947800;9.05303100;2024-02-04T04:48:04;97025.06;;;4.51;100.00
7824;BME280;3957;48.61947800;9.05303100;2024-02-04T04:49:06;97021.44;;;4.52;100.00
7824;BME280;3957;48.61947800;9.05303100;2024-02-04T04:50:08;97030.50;;;4.50;100.00
7824;BME280;3957;48.61947800;9.05303100;2024-02-04T04:51:11;97029.69;;;4.49;100.00
7824;BME280;3957;48.61947800;9.05303100;2024-02-04T04:52:13;97034.97;;;4.49;100.00
7824;BME280;3957;48.61947800;9.05303100;2024-02-04T04:53:15;97034.97;;;4.49;100.00
7824;BME280;3957;48.61947800;9.05303100;2024-02-04T04:54:17;97041.81;;;4.52;100.00
7824;BME280;3957;48.61947800;9.05303100;2024-02-04T04:55:19;97039.03;;;4.53;100.00
7824;BME280;3957;48.61947800;9.05303100;2024-02-04T04:56:20;97045.16;;;4.44;100.00
7824;BME280;3957;48.61947800;9.05303100;2024-02-04T04:57:22;97051.44;;;4.43;100.00
7824;BME280;3957;48.61947800;9.05303100;2024-02-04T04:58:23;97045.88;;;4.46;100.00
7824;BME280;3957;48.61947800;9.05303100;2024-02-04T04:59:25;97049.06;;;4.40;100.00
7824;BME280;3957;48.61947800;9.05303100;2024-02-04T05:00:27;97052.81;;;4.47;100.00